Time;durP1;ratioP1;P1;durP2;ratioP2;P2;SDS_P1;SDS_P2;PMS_P1;PMS_P2;Temp;Humidity;BMP_temperature;BMP_pressure;BME280_temperature;BME280_humidity;BME280_pressure;Samples;Min_cycle;Max_cycle;Signal;HPM_P1;HPM_P2
2022/02/20 00:01:25;;;;;;;6.10;4.10;;;7.20;90.70;;;;;;6100892;22;98206;-74
2022/02/20 00:03:52;;;;;;;5.03;4.47;;;7.20;90.80;;;;;;6123942;22;101734;-74
2022/02/20 00:06:19;;;;;;;4.97;4.32;;;7.20;90.90;;;;;;6125188;22;98994;-74
2022/02/20 00:08:47;;;;;;;4.60;3.95;;;7.30;91.00;;;;;;6151339;22;99792;-74
2022/02/20 00:11:14;;;;;;;6.40;4.70;;;7.30;91.00;;;;;;6151015;22;98563;-74
2022/02/20 00:13:41;;;;;;;5.38;4.75;;;7.30;91.10;;;;;;6123759;22;107745;-74
2022/02/20 00:16:08;;;;;;;7.00;5.43;;;7.30;91.20;;;;;;6099562;22;99910;-74
2022/02/20 00:18:35;;;;;;;4.75;3.65;;;7.30;91.30;;;;;;6151890;22;98499;-79
2022/02/20 00:21:03;;;;;;;3.13;2.70;;;7.20;91.20;;;;;;6099832;22;98620;-74
2022/02/20 00:23:30;;;;;;;5.57;4.05;;;7.10;91.20;;;;;;6151166;22;99264;-74
2022/02/20 00:25:57;;;;;;;5.68;4.65;;;7.00;91.40;;;;;;6124903;22;98904;-74
2022/02/20 00:28:24;;;;;;;7.35;4.93;;;6.90;91.40;;;;;;6151813;22;98420;-74
2022/02/20 00:30:51;;;;;;;4.68;3.90;;;6.90;91.50;;;;;;6124900;22;98547;-74
2022/02/20 00:33:18;;;;;;;4.35;3.92;;;6.80;91.40;;;;;;6123900;22;102482;-79
2022/02/20 00:35:45;;;;;;;4.90;3.35;;;6.80;91.50;;;;;;6150868;22;99749;-79
2022/02/20 00:38:13;;;;;;;4.53;3.83;;;6.60;91.40;;;;;;6100377;22;98646;-80
2022/02/20 00:40:40;;;;;;;2.50;2.40;;;6.60;91.50;;;;;;6124430;22;101891;-79
2022/02/20 00:43:08;;;;;;;4.32;3.90;;;6.50;91.40;;;;;;6151382;22;99560;-80
2022/02/20 00:45:35;;;;;;;5.07;4.47;;;6.50;91.70;;;;;;6125034;22;98838;-79
2022/02/20 00:48:02;;;;;;;4.85;4.07;;;6.40;91.30;;;;;;6124817;22;98480;-79
2022/02/20 00:50:29;;;;;;;4.63;4.22;;;6.30;91.40;;;;;;6152156;22;97743;-79
2022/02/20 00:52:57;;;;;;;4.22;3.92;;;6.20;91.60;;;;;;6150691;22;99340;-79
2022/02/20 00:55:25;;;;;;;4.68;4.28;;;6.20;91.30;;;;;;6151050;22;99066;-80
2022/02/20 00:57:53;;;;;;;5.75;5.15;;;6.20;91.50;;;;;;6124055;22;99704;-80
2022/02/20 01:00:21;;;;;;;5.75;4.28;;;6.10;91.50;;;;;;6125428;22;98510;-74
2022/02/20 01:02:48;;;;;;;5.68;5.10;;;6.10;91.50;;;;;;6123583;22;101647;-74
2022/02/20 01:05:15;;;;;;;7.13;5.38;;;6.10;91.60;;;;;;6098994;22;103512;-74
2022/02/20 01:07:44;;;;;;;5.78;5.20;;;6.00;91.50;;;;;;6151392;22;98381;-74
2022/02/20 01:10:14;;;;;;;5.03;4.53;;;6.00;91.50;;;;;;6124948;22;98927;-74
2022/02/20 01:12:41;;;;;;;5.75;5.13;;;6.00;91.40;;;;;;6123927;22;100411;-79
2022/02/20 01:15:10;;;;;;;5.35;4.85;;;6.00;91.40;;;;;;6124232;22;101640;-79
2022/02/20 01:17:37;;;;;;;5.15;3.80;;;6.00;91.40;;;;;;6099813;22;98584;-74
2022/02/20 01:20:06;;;;;;;5.55;4.68;;;5.90;91.30;;;;;;6099751;22;98988;-74
2022/02/20 01:22:33;;;;;;;4.75;4.35;;;5.90;91.10;;;;;;6098949;22;102638;-74
2022/02/20 01:25:00;;;;;;;4.38;3.90;;;6.00;91.30;;;;;;6100367;22;102347;-74
2022/02/20 01:27:28;;;;;;;4.13;3.72;;;6.10;91.30;;;;;;6152553;22;98451;-74
2022/02/20 01:29:55;;;;;;;6.32;4.10;;;6.10;91.00;;;;;;6125901;22;98544;-79
2022/02/20 01:32:22;;;;;;;4.25;3.85;;;6.10;90.90;;;;;;6100189;22;109986;-79
2022/02/20 01:34:49;;;;;;;3.92;2.90;;;6.00;90.80;;;;;;6100618;22;101461;-74
2022/02/20 01:37:16;;;;;;;4.43;4.03;;;5.90;90.60;;;;;;6125800;22;98458;-79
2022/02/20 01:39:43;;;;;;;3.88;3.47;;;5.90;90.70;;;;;;6125716;22;97813;-79
2022/02/20 01:42:18;;;;;;;3.35;3.15;;;5.80;90.70;;;;;;6124953;22;101576;-79
2022/02/20 01:44:46;;;;;;;2.97;2.67;;;5.70;90.80;;;;;;6125206;22;101274;-79
2022/02/20 01:47:15;;;;;;;2.40;2.20;;;5.70;90.30;;;;;;6151973;22;99241;-79
2022/02/20 01:49:43;;;;;;;2.70;2.15;;;5.60;90.30;;;;;;6125960;22;98783;-79
2022/02/20 01:52:11;;;;;;;2.20;2.10;;;5.60;90.50;;;;;;6124645;22;101778;-79
2022/02/20 01:54:38;;;;;;;2.42;2.22;;;5.60;90.20;;;;;;6125141;22;101242;-79
2022/02/20 01:57:07;;;;;;;2.47;1.95;;;5.50;90.10;;;;;;6125532;22;99057;-79
2022/02/20 01:59:40;;;;;;;;;;;5.50;90.40;;;;;;6153173;22;98455;-79
2022/02/20 02:02:07;;;;;;;2.80;2.55;;;5.50;90.60;;;;;;6151833;22;98949;-74
2022/02/20 02:04:52;;;;;;;3.60;3.20;;;5.60;90.80;;;;;;6120472;23;101102;-74
2022/02/20 02:07:20;;;;;;;3.17;2.80;;;5.70;90.40;;;;;;6095809;23;98601;-79
2022/02/20 02:09:56;;;;;;;3.10;2.80;;;5.80;90.30;;;;;;6095908;23;98559;-79
2022/02/20 02:12:50;;;;;;;3.30;3.00;;;5.80;90.20;;;;;;6095160;23;102624;-74
2022/02/20 02:15:52;;;;;;;3.05;2.85;;;5.90;90.20;;;;;;6095405;23;102037;-74
2022/02/20 02:18:39;;;;;;;3.53;2.50;;;6.00;90.10;;;;;;6122603;23;98546;-74
2022/02/20 02:21:27;;;;;;;3.05;2.78;;;6.00;90.10;;;;;;6096111;23;98530;-79
2022/02/20 02:24:15;;;;;;;3.38;3.15;;;6.00;89.90;;;;;;6121654;23;98813;-79
2022/02/20 02:26:57;;;;;;;3.92;3.53;;;6.10;89.70;;;;;;6095203;23;101595;-79
2022/02/20 02:30:05;;;;;;;3.30;3.00;;;6.10;89.80;;;;;;6060415;23;98523;-79
2022/02/20 02:32:33;;;;;;;3.40;3.10;;;6.10;89.50;;;;;;6086580;23;97922;-79
2022/02/20 02:35:00;;;;;;;4.55;3.05;;;6.10;89.40;;;;;;6070238;23;101937;-79
2022/02/20 02:37:28;;;;;;;3.25;2.80;;;6.20;89.10;;;;;;6095264;23;99957;-79
2022/02/20 02:39:55;;;;;;;3.28;2.85;;;6.20;88.90;;;;;;6095482;23;99226;-79
2022/02/20 02:42:22;;;;;;;3.28;3.03;;;6.20;88.80;;;;;;6095928;23;98709;-78
2022/02/20 02:44:49;;;;;;;3.40;3.10;;;6.30;88.80;;;;;;6095150;23;101672;-75
2022/02/20 02:47:17;;;;;;;3.20;3.00;;;6.30;88.50;;;;;;6094927;23;102249;-73
2022/02/20 02:49:44;;;;;;;4.47;3.25;;;6.30;88.50;;;;;;6095752;23;98451;-79
2022/02/20 02:52:11;;;;;;;3.92;3.53;;;6.30;88.40;;;;;;6121849;23;98367;-79
2022/02/20 02:54:38;;;;;;;3.58;3.28;;;6.30;88.40;;;;;;6095060;23;101920;-79
2022/02/20 02:57:04;;;;;;;3.53;3.22;;;6.30;88.70;;;;;;6071103;23;101802;-79
2022/02/20 02:59:34;;;;;;;3.40;3.10;;;6.30;88.60;;;;;;6095420;23;98941;-79
2022/02/20 03:02:04;;;;;;;3.38;2.83;;;6.30;88.30;;;;;;6071143;23;98685;-74
2022/02/20 03:04:32;;;;;;;3.40;3.10;;;6.30;88.00;;;;;;6102855;23;102679;-74
2022/02/20 03:06:59;;;;;;;2.72;2.53;;;6.30;88.00;;;;;;6070816;23;102065;-74
2022/02/20 03:09:26;;;;;;;2.88;2.58;;;6.30;87.90;;;;;;6095816;23;98490;-74
2022/02/20 03:11:54;;;;;;;3.08;2.58;;;6.30;87.80;;;;;;6095472;23;98549;-79
2022/02/20 03:14:26;;;;;;;2.60;2.40;;;6.30;87.70;;;;;;6119885;23;101661;-79
2022/02/20 03:16:54;;;;;;;3.95;2.80;;;6.20;87.60;;;;;;6094917;23;101154;-73
2022/02/20 03:19:21;;;;;;;2.75;2.50;;;6.10;88.10;;;;;;6095918;23;98913;-73
2022/02/20 03:21:48;;;;;;;2.80;2.60;;;6.10;88.00;;;;;;6096206;23;97869;-74
2022/02/20 03:24:19;;;;;;;3.45;2.70;;;6.00;88.10;;;;;;6119425;23;101109;-74
2022/02/20 03:26:48;;;;;;;5.68;3.22;;;6.00;88.20;;;;;;6071075;23;101397;-74
2022/02/20 03:29:20;;;;;;;4.20;3.25;;;6.00;88.40;;;;;;6095052;23;99266;-74
2022/02/20 03:31:47;;;;;;;3.65;3.28;;;5.90;88.50;;;;;;6095142;23;98553;-74
2022/02/20 03:34:14;;;;;;;3.78;3.10;;;5.80;88.60;;;;;;6095214;23;99337;-74
2022/02/20 03:36:46;;;;;;;4.38;3.25;;;5.70;88.90;;;;;;6095001;23;101401;-74
2022/02/20 03:39:24;;;;;;;4.43;3.60;;;5.70;89.20;;;;;;6095406;23;98471;-74
2022/02/20 03:41:52;;;;;;;4.00;3.63;;;5.60;89.80;;;;;;6071065;23;98457;-74
2022/02/20 03:44:39;;;;;;;5.07;4.05;;;5.60;89.90;;;;;;6105555;23;99432;-74
2022/02/20 03:47:13;;;;;;;4.18;3.78;;;5.50;90.00;;;;;;6120101;23;101427;-74
2022/02/20 03:49:40;;;;;;;7.47;4.53;;;5.50;90.10;;;;;;6071055;23;98898;-74
2022/02/20 03:52:25;;;;;;;5.85;4.18;;;5.50;90.30;;;;;;6120425;23;98541;-74
2022/02/20 03:54:53;;;;;;;4.43;4.03;;;5.50;90.30;;;;;;6094371;23;102277;-74
2022/02/20 03:57:22;;;;;;;4.20;3.80;;;5.50;90.30;;;;;;6094878;23;100699;-74
2022/02/20 04:00:23;;;;;;;4.20;3.80;;;5.50;90.30;;;;;;6087780;23;98533;-74
2022/02/20 04:03:22;;;;;;;3.65;3.28;;;5.50;90.30;;;;;;6110498;23;98687;-74
2022/02/20 04:05:53;;;;;;;4.60;4.10;;;5.40;90.30;;;;;;6124238;22;101484;-74
2022/02/20 04:08:21;;;;;;;3.97;3.60;;;5.40;90.30;;;;;;6124103;22;101773;-74
2022/02/20 04:10:52;;;;;;;3.83;3.50;;;5.40;90.60;;;;;;6125280;22;98616;-74
2022/02/20 04:13:42;;;;;;;4.15;3.70;;;5.40;90.30;;;;;;6122488;22;97794;-73
2022/02/20 04:16:15;;;;;;;3.80;3.50;;;5.40;90.40;;;;;;6124280;22;101243;-74
2022/02/20 04:18:49;;;;;;;4.33;3.50;;;5.40;90.50;;;;;;6101374;22;101319;-74
2022/02/20 04:21:21;;;;;;;4.28;3.80;;;5.30;90.40;;;;;;6124436;22;99261;-74
2022/02/20 04:23:53;;;;;;;3.47;3.15;;;5.40;90.40;;;;;;6125019;22;98515;-74
2022/02/20 04:26:21;;;;;;;3.83;3.45;;;5.40;90.40;;;;;;6124201;22;101522;-74
2022/02/20 04:28:49;;;;;;;3.65;3.33;;;5.30;90.30;;;;;;6124240;22;101018;-74
2022/02/20 04:31:17;;;;;;;5.38;3.65;;;5.40;90.30;;;;;;6100154;22;98458;-74
2022/02/20 04:33:48;;;;;;;3.95;3.20;;;5.40;90.40;;;;;;6125034;22;98448;-74
2022/02/20 04:36:16;;;;;;;4.70;3.17;;;5.40;90.50;;;;;;6099468;22;101677;-74
2022/02/20 04:38:50;;;;;;;3.90;3.47;;;5.40;90.50;;;;;;6124594;22;101055;-74
2022/02/20 04:41:21;;;;;;;4.50;3.28;;;5.40;90.50;;;;;;6124708;22;98786;-74
2022/02/20 04:43:49;;;;;;;3.95;3.55;;;5.40;90.70;;;;;;6125117;22;98585;-74
2022/02/20 04:46:17;;;;;;;4.10;3.70;;;5.40;90.70;;;;;;6123618;22;102278;-74
2022/02/20 04:48:44;;;;;;;4.25;3.85;;;5.40;90.80;;;;;;6099631;22;102221;-74
2022/02/20 04:51:36;;;;;;;3.60;3.30;;;5.50;90.80;;;;;;6150972;22;98546;-74
2022/02/20 04:54:04;;;;;;;3.97;3.60;;;5.50;90.80;;;;;;6124804;22;98583;-74
2022/02/20 04:56:32;;;;;;;7.28;3.83;;;5.50;90.80;;;;;;6099407;22;101562;-74
2022/02/20 04:59:00;;;;;;;3.80;3.35;;;5.50;90.70;;;;;;6126828;22;100743;-74
2022/02/20 05:01:42;;;;;;;4.25;3.60;;;5.60;90.70;;;;;;6128295;22;98537;-74
2022/02/20 05:04:19;;;;;;;4.78;3.70;;;5.60;90.70;;;;;;6128219;22;98178;-74
2022/02/20 05:06:49;;;;;;;5.32;3.63;;;5.70;90.70;;;;;;6127547;22;101454;-73
2022/02/20 05:09:21;;;;;;;5.07;3.45;;;5.70;90.70;;;;;;6127384;22;101371;-74
2022/02/20 05:11:59;;;;;;;11.02;4.47;;;5.70;90.70;;;;;;6152872;22;99348;-74
2022/02/20 05:14:26;;;;;;;3.47;2.80;;;5.80;90.60;;;;;;6154539;22;99056;-74
2022/02/20 05:16:58;;;;;;;3.95;3.03;;;5.80;90.60;;;;;;6127409;22;101388;-74
2022/02/20 05:19:46;;;;;;;4.13;2.97;;;5.80;90.60;;;;;;6127542;22;101569;-74
2022/02/20 05:22:13;;;;;;;3.30;3.00;;;5.80;90.70;;;;;;6127967;22;99189;-74
2022/02/20 05:24:46;;;;;;;5.07;3.00;;;5.90;90.60;;;;;;6128005;22;98575;-74
2022/02/20 05:27:13;;;;;;;5.82;3.40;;;5.90;90.60;;;;;;6102822;22;101455;-74
2022/02/20 05:29:41;;;;;;;3.33;3.03;;;5.90;90.60;;;;;;6103080;22;101430;-74
2022/02/20 05:32:11;;;;;;;5.75;2.75;;;5.90;90.50;;;;;;6127462;22;98556;-74
2022/02/20 05:34:53;;;;;;;2.92;2.70;;;6.00;90.60;;;;;;6127993;22;98473;-74
2022/02/20 05:37:26;;;;;;;3.20;2.90;;;6.00;90.70;;;;;;6126718;22;102954;-74
2022/02/20 05:39:53;;;;;;;5.32;3.45;;;6.00;90.50;;;;;;6102651;22;102204;-74
2022/02/20 05:42:21;;;;;;;6.93;3.20;;;6.00;90.40;;;;;;6127034;22;98589;-74
2022/02/20 05:45:03;;;;;;;5.30;3.03;;;6.00;90.50;;;;;;6153017;22;98498;-74
2022/02/20 05:47:32;;;;;;;4.63;3.15;;;6.00;90.60;;;;;;6102563;22;102109;-74
2022/02/20 05:50:01;;;;;;;4.90;3.50;;;6.10;90.70;;;;;;6127052;22;101467;-74
2022/02/20 05:52:28;;;;;;;2.88;2.63;;;6.10;90.50;;;;;;6127398;22;98453;-74
2022/02/20 05:54:55;;;;;;;3.45;2.55;;;6.10;90.50;;;;;;6154760;22;97717;-74
2022/02/20 05:57:22;;;;;;;3.45;3.13;;;6.10;90.70;;;;;;6127243;22;101992;-74
2022/02/20 05:59:56;;;;;;;3.15;2.83;;;6.10;90.70;;;;;;6127190;22;101203;-74
2022/02/20 06:02:23;;;;;;;3.13;2.80;;;6.10;90.90;;;;;;6127178;22;99349;-74
2022/02/20 06:04:53;;;;;;;3.22;2.63;;;6.10;91.00;;;;;;6103211;22;98564;-74
2022/02/20 06:07:20;;;;;;;4.57;2.70;;;6.10;90.80;;;;;;6153653;22;98751;-74
2022/02/20 06:10:11;;;;;;;4.47;2.80;;;6.10;90.70;;;;;;6136471;22;98899;-74
2022/02/20 06:13:04;;;;;;;4.10;2.75;;;6.10;90.90;;;;;;6136087;22;98475;-74
2022/02/20 06:15:41;;;;;;;4.35;2.38;;;6.10;91.10;;;;;;6125482;22;98556;-74
2022/02/20 06:18:38;;;;;;;3.88;2.92;;;6.10;91.40;;;;;;6091388;22;100020;-74
2022/02/20 06:21:31;;;;;;;5.13;2.80;;;6.10;91.30;;;;;;6108376;22;98767;-74
2022/02/20 06:24:13;;;;;;;6.13;2.95;;;6.10;91.20;;;;;;6104636;22;99155;-74
2022/02/20 06:26:54;;;;;;;4.07;3.20;;;6.10;91.40;;;;;;6103980;22;98800;-74
2022/02/20 06:29:21;;;;;;;4.55;2.42;;;6.10;91.40;;;;;;6099973;22;102367;-74
2022/02/20 06:31:48;;;;;;;5.75;3.15;;;6.20;91.20;;;;;;6099839;22;101747;-74
2022/02/20 06:34:16;;;;;;;4.13;2.53;;;6.20;91.30;;;;;;6125253;22;98928;-74
2022/02/20 06:36:44;;;;;;;3.75;2.78;;;6.20;91.40;;;;;;6125324;22;98421;-74
2022/02/20 06:39:11;;;;;;;5.60;2.88;;;6.20;91.30;;;;;;6124876;22;101758;-74
2022/02/20 06:41:38;;;;;;;5.13;2.80;;;6.20;91.40;;;;;;6100055;22;101259;-74
2022/02/20 06:44:05;;;;;;;4.47;2.33;;;6.30;91.40;;;;;;6125520;22;98441;-74
2022/02/20 06:46:55;;;;;;;4.38;2.92;;;6.20;91.50;;;;;;6152607;22;98111;-74
2022/02/20 06:49:46;;;;;;;6.68;3.60;;;6.20;91.30;;;;;;6124820;22;101592;-74
2022/02/20 06:52:51;;;;;;;5.30;3.78;;;6.20;91.30;;;;;;6137721;22;99872;-74
2022/02/20 06:55:39;;;;;;;3.65;3.03;;;6.30;91.50;;;;;;6150563;22;99238;-74
2022/02/20 06:58:07;;;;;;;4.68;3.13;;;6.30;91.20;;;;;;6152247;22;98518;-74
2022/02/20 07:00:34;;;;;;;4.68;2.90;;;6.30;91.20;;;;;;6124642;22;101839;-74
2022/02/20 07:03:01;;;;;;;7.32;3.03;;;6.30;91.20;;;;;;6151700;22;99005;-74
2022/02/20 07:05:29;;;;;;;2.78;2.63;;;6.30;91.20;;;;;;6151909;22;98375;-74
2022/02/20 07:07:57;;;;;;;4.97;2.70;;;6.30;91.10;;;;;;6152030;22;98464;-74
2022/02/20 07:10:26;;;;;;;7.28;3.20;;;6.30;91.00;;;;;;6100445;22;102209;-74
2022/02/20 07:12:53;;;;;;;6.07;2.97;;;6.20;91.30;;;;;;6101228;22;99019;-74
2022/02/20 07:15:20;;;;;;;4.78;2.67;;;6.30;91.40;;;;;;6125419;22;98536;-74
2022/02/20 07:17:47;;;;;;;4.00;2.97;;;6.20;91.30;;;;;;6100451;22;98556;-74
2022/02/20 07:20:14;;;;;;;4.90;3.33;;;6.30;91.30;;;;;;6124604;22;99867;-74
2022/02/20 07:22:41;;;;;;;5.43;3.20;;;6.30;91.20;;;;;;6124904;22;99623;-74
2022/02/20 07:25:08;;;;;;;5.78;2.92;;;6.30;91.30;;;;;;6152154;22;98407;-74
2022/02/20 07:27:43;;;;;;;4.13;2.85;;;6.30;91.40;;;;;;6151747;22;98495;-74
2022/02/20 07:30:12;;;;;;;5.57;3.22;;;6.20;91.50;;;;;;6125344;22;99251;-74
2022/02/20 07:32:39;;;;;;;5.05;3.00;;;6.30;91.70;;;;;;6125207;22;98925;-74
2022/02/20 07:35:07;;;;;;;7.22;3.67;;;6.20;91.60;;;;;;6125046;22;98522;-74
2022/02/20 07:37:34;;;;;;;5.40;3.30;;;6.30;91.80;;;;;;6125349;22;97805;-74
2022/02/20 07:40:02;;;;;;;4.93;3.58;;;6.30;91.80;;;;;;6099860;22;109631;-74
2022/02/20 07:42:29;;;;;;;7.70;3.58;;;6.40;91.80;;;;;;6124613;22;101323;-74
2022/02/20 07:44:56;;;;;;;5.72;4.00;;;6.40;91.90;;;;;;6124762;22;99207;-74
2022/02/20 07:47:23;;;;;;;6.63;4.18;;;6.40;92.20;;;;;;6152012;22;98507;-74
2022/02/20 07:49:50;;;;;;;6.47;4.40;;;6.40;92.20;;;;;;6124544;22;102322;-74
2022/02/20 07:52:18;;;;;;;9.80;4.60;;;6.40;92.20;;;;;;6100204;22;101758;-74
2022/02/20 07:54:45;;;;;;;6.28;4.15;;;6.40;92.30;;;;;;6124660;22;98443;-74
2022/02/20 07:57:12;;;;;;;7.22;4.30;;;6.40;92.20;;;;;;6126037;22;99029;-74
2022/02/20 07:59:39;;;;;;;6.43;4.28;;;6.50;92.00;;;;;;6151106;22;99295;-74
2022/02/20 08:02:07;;;;;;;6.50;4.30;;;6.50;92.30;;;;;;6125067;22;100201;-74
2022/02/20 08:04:34;;;;;;;5.78;5.07;;;6.50;92.20;;;;;;6151563;22;98923;-74
2022/02/20 08:07:04;;;;;;;7.20;4.70;;;6.60;92.50;;;;;;6124748;22;98626;-74
2022/02/20 08:09:30;;;;;;;6.93;4.22;;;6.70;92.50;;;;;;6151004;22;99890;-74
2022/02/20 08:11:57;;;;;;;7.50;4.95;;;6.70;92.20;;;;;;6075479;22;102417;-74
2022/02/20 08:14:24;;;;;;;5.90;5.18;;;6.80;92.30;;;;;;6151690;22;98465;-74
2022/02/20 08:16:51;;;;;;;6.65;4.45;;;6.80;92.50;;;;;;6124617;22;98548;-74
2022/02/20 08:19:19;;;;;;;9.43;5.45;;;6.90;92.50;;;;;;6125078;22;99894;-74
2022/02/20 08:21:46;;;;;;;6.38;4.60;;;6.90;92.40;;;;;;6124363;22;101738;-74
2022/02/20 08:24:13;;;;;;;9.30;5.25;;;7.10;92.40;;;;;;6125445;22;98514;-74
2022/02/20 08:26:40;;;;;;;8.10;4.88;;;7.10;92.30;;;;;;6125920;22;97734;-74
2022/02/20 08:29:07;;;;;;;10.43;5.30;;;7.10;92.30;;;;;;6124718;22;101441;-74
2022/02/20 08:31:33;;;;;;;6.32;4.63;;;7.10;92.30;;;;;;6124500;22;108860;-74
2022/02/20 08:34:00;;;;;;;5.45;4.57;;;7.20;92.40;;;;;;6098970;22;99203;-74
2022/02/20 08:36:28;;;;;;;8.45;4.53;;;7.30;92.40;;;;;;6151911;22;98495;-74
2022/02/20 08:38:55;;;;;;;4.07;3.65;;;7.30;92.40;;;;;;6150956;22;99160;-74
2022/02/20 08:41:23;;;;;;;6.43;4.32;;;7.40;92.50;;;;;;6099790;22;101733;-74
2022/02/20 08:43:50;;;;;;;6.45;3.72;;;7.50;92.60;;;;;;6100798;22;98417;-74
2022/02/20 08:46:17;;;;;;;4.13;3.75;;;7.50;92.60;;;;;;6100326;22;98548;-74
2022/02/20 08:48:46;;;;;;;4.35;3.85;;;7.60;92.70;;;;;;6151354;22;98947;-74
2022/02/20 08:51:13;;;;;;;6.70;4.40;;;7.70;92.80;;;;;;6125939;22;98890;-74
2022/02/20 08:53:40;;;;;;;4.82;3.70;;;7.80;92.70;;;;;;6125469;22;99223;-74
2022/02/20 08:56:08;;;;;;;6.68;3.55;;;7.90;92.60;;;;;;6151275;22;98423;-74
2022/02/20 08:58:35;;;;;;;6.95;3.92;;;7.90;92.70;;;;;;6150176;22;108798;-74
2022/02/20 09:01:03;;;;;;;4.65;4.25;;;8.00;92.80;;;;;;6124476;22;99967;-74
2022/02/20 09:03:31;;;;;;;6.53;4.75;;;8.10;92.70;;;;;;6099960;22;98768;-74
2022/02/20 09:06:00;;;;;;;5.20;4.63;;;8.20;92.70;;;;;;6124007;22;98545;-74
2022/02/20 09:08:27;;;;;;;5.13;4.00;;;8.30;92.70;;;;;;6124620;22;99239;-74
2022/02/20 09:10:54;;;;;;;5.50;4.40;;;8.40;92.60;;;;;;6124274;22;98959;-74
2022/02/20 09:13:21;;;;;;;6.32;5.32;;;8.40;92.70;;;;;;6151556;22;98918;-74
2022/02/20 09:15:48;;;;;;;5.13;4.22;;;8.50;92.60;;;;;;6100146;22;97771;-74
2022/02/20 09:18:14;;;;;;;8.85;5.10;;;8.60;92.50;;;;;;6150760;22;99134;-74
2022/02/20 09:20:42;;;;;;;5.40;4.90;;;8.70;92.50;;;;;;6150804;22;98886;-74
2022/02/20 09:23:09;;;;;;;6.30;4.72;;;8.70;92.50;;;;;;6150932;22;99564;-74
2022/02/20 09:25:36;;;;;;;5.68;4.38;;;8.80;92.60;;;;;;6124359;22;103893;-74
2022/02/20 09:28:03;;;;;;;6.45;4.38;;;8.90;92.60;;;;;;6074777;22;102315;-74
2022/02/20 09:30:30;;;;;;;4.20;3.80;;;9.00;92.50;;;;;;6150674;22;99039;-75
2022/02/20 09:32:57;;;;;;;4.50;4.10;;;9.00;92.40;;;;;;6150985;22;98432;-74
2022/02/20 09:35:25;;;;;;;4.75;3.50;;;9.10;92.40;;;;;;6151056;22;98378;-74
2022/02/20 09:37:52;;;;;;;5.82;3.88;;;9.20;92.30;;;;;;6123622;22;100562;-74
2022/02/20 09:40:19;;;;;;;4.78;3.95;;;9.30;92.50;;;;;;6151554;22;99031;-74
2022/02/20 09:42:49;;;;;;;4.22;3.80;;;9.30;92.40;;;;;;6123767;22;98531;-74
2022/02/20 09:45:17;;;;;;;5.13;4.40;;;9.40;92.40;;;;;;6152228;22;98532;-74
2022/02/20 09:47:45;;;;;;;4.78;4.25;;;9.50;92.30;;;;;;6151539;22;100066;-74
2022/02/20 09:50:12;;;;;;;5.40;4.28;;;9.60;92.20;;;;;;6100176;22;102277;-74
2022/02/20 09:52:39;;;;;;;4.30;3.55;;;9.60;92.20;;;;;;6125553;22;98428;-74
2022/02/20 09:55:07;;;;;;;4.05;3.35;;;9.70;92.20;;;;;;6125218;22;98639;-74
2022/02/20 09:57:35;;;;;;;4.82;3.25;;;9.80;92.30;;;;;;6125539;22;100435;-74
2022/02/20 10:00:07;;;;;;;5.00;3.70;;;9.80;92.30;;;;;;6124762;22;101535;-74
2022/02/20 10:02:42;;;;;;;4.57;3.90;;;9.90;92.40;;;;;;6152546;22;98374;-74
2022/02/20 10:05:23;;;;;;;6.13;2.97;;;10.00;92.30;;;;;;6125811;22;97786;-74
2022/02/20 10:07:51;;;;;;;4.15;3.08;;;10.20;92.30;;;;;;6125004;22;101900;-74
2022/02/20 10:10:28;;;;;;;6.07;2.78;;;10.30;92.30;;;;;;6151566;22;98949;-74
2022/02/20 10:12:57;;;;;;;7.00;2.88;;;10.40;92.20;;;;;;6150230;22;99196;-74
2022/02/20 10:15:32;;;;;;;5.63;3.17;;;10.60;92.20;;;;;;6100746;22;98544;-74
2022/02/20 10:18:21;;;;;;;8.50;2.70;;;10.70;92.10;;;;;;6151376;22;100198;-74
2022/02/20 10:21:15;;;;;;;7.75;2.60;;;10.80;91.80;;;;;;6094989;22;98817;-74
2022/02/20 10:24:10;;;;;;;9.60;3.40;;;10.80;91.80;;;;;;6122625;22;98624;-74
2022/02/20 10:27:08;;;;;;;7.40;2.45;;;10.90;91.90;;;;;;6152472;22;98721;-75
2022/02/20 10:30:24;;;;;;;9.68;3.17;;;11.00;91.90;;;;;;6151666;22;100055;-74
2022/02/20 10:33:20;;;;;;;9.75;3.13;;;11.00;91.90;;;;;;6152349;22;98864;-75
2022/02/20 10:35:54;;;;;;;13.55;3.33;;;11.10;91.90;;;;;;6125573;22;98763;-74
2022/02/20 10:38:24;;;;;;;20.10;4.65;;;11.10;91.80;;;;;;6125561;22;98466;-75
2022/02/20 10:40:56;;;;;;;17.55;3.63;;;11.20;91.70;;;;;;6151441;22;100004;-75
2022/02/20 10:43:24;;;;;;;20.85;4.72;;;11.20;91.80;;;;;;6151798;22;99716;-74
2022/02/20 10:46:06;;;;;;;24.42;4.65;;;11.20;91.80;;;;;;6125454;22;98626;-74
2022/02/20 10:48:43;;;;;;;19.42;3.40;;;11.30;91.70;;;;;;6126122;22;98461;-74
2022/02/20 10:51:13;;;;;;;22.00;4.43;;;11.30;91.60;;;;;;6100083;22;101772;-74
2022/02/20 10:53:41;;;;;;;29.17;4.82;;;11.20;91.70;;;;;;6124622;22;100065;-75
2022/02/20 10:56:08;;;;;;;22.50;4.05;;;11.30;91.70;;;;;;6124696;22;98877;-80
2022/02/20 10:58:41;;;;;;;21.23;4.25;;;11.30;91.60;;;;;;6152303;22;98401;-74
2022/02/20 11:01:22;;;;;;;21.38;4.57;;;11.30;91.70;;;;;;6124527;22;101886;-74
2022/02/20 11:03:50;;;;;;;18.92;4.10;;;11.40;91.80;;;;;;6151259;22;99018;-75
2022/02/20 11:06:18;;;;;;;21.05;4.05;;;11.40;91.70;;;;;;6151641;22;99254;-74
2022/02/20 11:08:45;;;;;;;21.83;4.43;;;11.50;91.60;;;;;;6125988;22;98426;-74
2022/02/20 11:13:59;;;;;;;26.92;4.65;;;11.60;91.30;;;;;;6151751;22;99014;-74
2022/02/20 11:16:29;;;;;;;24.23;4.72;;;11.60;91.20;;;;;;6101054;22;98501;-74
2022/02/20 11:18:57;;;;;;;15.23;3.53;;;11.60;91.10;;;;;;6125520;22;98521;-74
2022/02/20 11:21:26;;;;;;;18.75;4.13;;;11.70;91.10;;;;;;6151279;22;99397;-74
2022/02/20 11:23:58;;;;;;;21.83;4.55;;;11.70;91.00;;;;;;6150170;22;101588;-74
2022/02/20 11:26:26;;;;;;;24.05;5.03;;;11.80;91.00;;;;;;6151844;22;98450;-74
2022/02/20 11:28:55;;;;;;;20.23;4.47;;;11.80;90.90;;;;;;6152100;22;98485;-74
2022/02/20 11:31:24;;;;;;;23.20;4.53;;;11.80;90.90;;;;;;6150778;22;99942;-74
2022/02/20 11:33:55;;;;;;;21.67;4.80;;;11.80;90.90;;;;;;6125194;22;99657;-74
2022/02/20 11:36:28;;;;;;;23.02;4.47;;;11.80;90.70;;;;;;6125079;22;98575;-75
2022/02/20 11:39:07;;;;;;;25.63;6.05;;;11.80;90.90;;;;;;6152053;22;98383;-75
2022/02/20 11:41:36;;;;;;;23.00;5.32;;;11.90;90.90;;;;;;6124784;22;102085;-74
2022/02/20 11:44:18;;;;;;;29.52;6.63;;;11.80;90.90;;;;;;6151022;22;111526;-74
2022/02/20 11:46:50;;;;;;;26.02;5.30;;;11.80;90.90;;;;;;6152053;22;98436;-74
2022/02/20 11:49:29;;;;;;;18.83;5.60;;;11.80;90.90;;;;;;6125643;22;97754;-74
2022/02/20 11:51:58;;;;;;;25.65;5.70;;;11.80;90.90;;;;;;6100425;22;101781;-74
2022/02/20 11:54:26;;;;;;;32.85;7.72;;;11.80;90.90;;;;;;6124748;22;99096;-74
2022/02/20 11:57:26;;;;;;;27.85;5.40;;;11.70;90.90;;;;;;6151640;22;99218;-75
2022/02/20 12:00:06;;;;;;;22.13;5.50;;;11.70;90.90;;;;;;6117576;22;98660;-74
2022/02/20 12:03:00;;;;;;;22.05;5.50;;;11.70;91.00;;;;;;6124685;22;102088;-74
2022/02/20 12:05:28;;;;;;;25.13;6.15;;;11.70;91.10;;;;;;6150892;22;99117;-74
2022/02/20 12:07:55;;;;;;;26.27;5.38;;;11.70;91.20;;;;;;6124320;22;98989;-74
2022/02/20 12:10:25;;;;;;;19.08;4.72;;;11.60;91.20;;;;;;6125345;22;98464;-74
2022/02/20 12:12:55;;;;;;;23.80;5.15;;;11.60;91.30;;;;;;6124464;22;100455;-74
2022/02/20 12:15:26;;;;;;;19.35;4.43;;;11.70;91.30;;;;;;6151548;22;99001;-74
2022/02/20 12:18:22;;;;;;;26.45;5.28;;;11.70;91.20;;;;;;6151970;22;98974;-74
2022/02/20 12:20:52;;;;;;;24.02;4.88;;;11.70;91.30;;;;;;6151809;22;98423;-74
2022/02/20 12:23:45;;;;;;;25.25;4.95;;;11.70;91.20;;;;;;6123835;22;102574;-74
2022/02/20 12:26:54;;;;;;;18.45;4.68;;;11.70;91.20;;;;;;6150974;22;99740;-74
2022/02/20 12:29:31;;;;;;;28.15;5.05;;;11.70;91.20;;;;;;6150296;22;99269;-74
2022/02/20 12:31:59;;;;;;;25.08;5.25;;;11.70;91.20;;;;;;6125281;22;98594;-74
2022/02/20 12:34:52;;;;;;;25.23;5.13;;;11.70;91.30;;;;;;6150815;22;99307;-74
2022/02/20 12:37:25;;;;;;;20.55;4.88;;;11.80;91.30;;;;;;6097953;22;99960;-74
2022/02/20 12:40:07;;;;;;;24.55;5.20;;;11.70;91.30;;;;;;6151940;22;98540;-74
2022/02/20 12:42:55;;;;;;;22.95;5.78;;;11.70;91.20;;;;;;6150183;22;97788;-74
2022/02/20 12:45:30;;;;;;;25.30;5.05;;;11.70;91.30;;;;;;6124115;22;100249;-74
2022/02/20 12:48:00;;;;;;;23.55;5.35;;;11.80;91.30;;;;;;6124942;22;99097;-74
2022/02/20 12:50:40;;;;;;;23.83;5.00;;;11.80;91.20;;;;;;6123931;22;99309;-74
2022/02/20 12:53:08;;;;;;;21.20;4.80;;;11.80;91.20;;;;;;6106026;22;98576;-75
2022/02/20 12:55:37;;;;;;;23.40;4.47;;;11.80;91.20;;;;;;6077734;22;99356;-74
2022/02/20 12:58:08;;;;;;;23.98;4.47;;;11.90;91.20;;;;;;6129142;22;99202;-74
2022/02/20 13:00:41;;;;;;;22.13;4.90;;;11.90;91.10;;;;;;6103035;22;98498;-73
2022/02/20 13:03:13;;;;;;;21.98;4.72;;;11.90;91.10;;;;;;6128788;22;99069;-74
2022/02/20 13:05:47;;;;;;;20.30;4.95;;;11.90;91.10;;;;;;6078222;22;100230;-74
2022/02/20 13:08:16;;;;;;;;;;;11.90;91.10;;;;;;6128980;22;99069;-73
2022/02/20 13:10:45;;;;;;;21.85;4.63;;;11.80;91.10;;;;;;6130238;22;98494;-73
2022/02/20 13:13:15;;;;;;;24.55;5.35;;;11.90;91.20;;;;;;6103454;22;99309;-73
2022/02/20 13:15:57;;;;;;;13.90;4.15;;;11.90;91.20;;;;;;6101166;22;105370;-75
2022/02/20 13:18:33;;;;;;;22.25;4.78;;;11.90;91.20;;;;;;6127672;22;99800;-75